createdAt,value
2018-11-05T00:01:57.455Z,8.97
2018-11-05T00:07:00.768Z,8.83
2018-11-05T00:12:04.562Z,10.03
2018-11-05T00:17:07.789Z,9.50
2018-11-05T00:22:11.061Z,9.53
2018-11-05T00:27:14.305Z,12.17
2018-11-05T00:32:17.547Z,9.83
2018-11-05T00:37:20.714Z,10.20
2018-11-05T00:42:23.946Z,8.60
2018-11-05T00:47:27.178Z,8.73
2018-11-05T00:52:30.434Z,8.53
2018-11-05T00:57:33.654Z,9.77
2018-11-05T01:02:37.146Z,9.73
2018-11-05T01:07:41.338Z,7.93
2018-11-05T01:12:44.616Z,8.80
2018-11-05T01:17:47.847Z,8.27
2018-11-05T01:22:51.079Z,9.63
2018-11-05T01:27:54.283Z,9.70
2018-11-05T01:32:57.443Z,9.10
2018-11-05T01:38:00.774Z,10.80
2018-11-05T01:43:04.120Z,9.50
2018-11-05T01:48:07.630Z,10.93
2018-11-05T01:53:10.971Z,10.67
2018-11-05T01:58:14.202Z,10.73
2018-11-05T02:03:17.386Z,10.37
2018-11-05T02:08:20.650Z,8.07
2018-11-05T02:13:23.873Z,8.70
2018-11-05T02:18:27.014Z,9.30
2018-11-05T02:23:30.262Z,11.93
2018-11-05T02:28:33.482Z,10.60
2018-11-05T02:33:36.706Z,8.80
2018-11-05T02:38:39.909Z,9.40
2018-11-05T02:43:43.084Z,9.33
2018-11-05T02:48:46.336Z,11.00
2018-11-05T02:53:49.545Z,11.57
2018-11-05T02:58:52.838Z,10.90
2018-11-05T03:03:56.106Z,10.47
2018-11-05T03:08:59.330Z,10.23
2018-11-05T03:14:02.550Z,11.27
2018-11-05T03:19:06.265Z,9.50
2018-11-05T03:24:09.455Z,10.40
2018-11-05T03:29:12.643Z,10.33
2018-11-05T03:34:15.842Z,11.00
2018-11-05T03:39:19.046Z,11.03
2018-11-05T03:44:22.252Z,9.73
2018-11-05T03:49:25.435Z,9.40
2018-11-05T03:54:28.695Z,10.63
2018-11-05T03:59:32.574Z,10.47
2018-11-05T04:04:35.791Z,12.30
2018-11-05T04:09:38.981Z,10.23
2018-11-05T04:14:42.297Z,12.07
2018-11-05T04:19:45.486Z,10.97
2018-11-05T04:24:48.743Z,9.83
2018-11-05T04:29:51.914Z,12.13
2018-11-05T04:34:55.122Z,10.93
2018-11-05T04:39:58.322Z,12.27
2018-11-05T04:45:01.548Z,9.83
2018-11-05T04:50:07.503Z,11.00
2018-11-05T04:55:10.935Z,13.23
2018-11-05T05:00:16.391Z,10.70
2018-11-05T05:05:19.594Z,11.03
2018-11-05T05:10:22.829Z,11.70
2018-11-05T05:15:26.136Z,11.70
2018-11-05T05:20:29.399Z,11.47
2018-11-05T05:25:32.601Z,10.87
2018-11-05T05:30:35.771Z,12.10
2018-11-05T05:35:38.983Z,10.97
2018-11-05T05:40:42.270Z,11.57
2018-11-05T05:45:45.438Z,14.00
2018-11-05T05:50:48.683Z,12.57
2018-11-05T05:55:51.935Z,12.67
2018-11-05T06:00:55.330Z,12.70
2018-11-05T06:05:58.692Z,10.83
2018-11-05T06:11:01.891Z,10.63
2018-11-05T06:16:05.295Z,10.70
2018-11-05T06:21:08.455Z,11.93
2018-11-05T06:26:11.774Z,11.97
2018-11-05T06:31:14.995Z,11.30
2018-11-05T06:36:30.092Z,11.70
2018-11-05T06:41:33.534Z,13.30
2018-11-05T06:46:36.687Z,10.63
2018-11-05T06:51:40.071Z,13.40
2018-11-05T06:56:43.502Z,11.57
2018-11-05T07:01:46.718Z,11.50
2018-11-05T07:06:49.946Z,10.90
2018-11-05T07:11:53.189Z,13.63
2018-11-05T07:16:56.523Z,11.97
2018-11-05T07:22:00.074Z,12.60
2018-11-05T07:27:03.323Z,12.73
2018-11-05T07:32:06.642Z,11.90
2018-11-05T07:37:09.898Z,13.97
2018-11-05T07:42:13.123Z,11.80
2018-11-05T07:47:16.341Z,11.80
2018-11-05T07:52:19.587Z,11.67
2018-11-05T07:57:22.833Z,10.13
2018-11-05T08:02:26.111Z,10.73
2018-11-05T08:07:29.355Z,10.23
2018-11-05T08:12:32.632Z,9.00
2018-11-05T08:17:36.043Z,12.07
2018-11-05T08:22:39.308Z,10.67
2018-11-05T08:27:42.548Z,11.20
2018-11-05T08:32:46.364Z,11.30
2018-11-05T08:37:50.174Z,9.30
2018-11-05T08:42:54.198Z,10.23
2018-11-05T08:47:57.425Z,9.97
2018-11-05T08:53:00.655Z,11.90
2018-11-05T08:58:03.934Z,10.70
2018-11-05T09:03:08.189Z,12.77
2018-11-05T09:08:11.458Z,13.20
2018-11-05T09:13:14.695Z,12.37
2018-11-05T09:18:17.936Z,13.40
2018-11-05T09:23:21.212Z,16.10
2018-11-05T09:28:24.491Z,13.20
2018-11-05T09:33:27.749Z,14.20
2018-11-05T09:38:30.982Z,14.73
2018-11-05T09:43:34.191Z,10.90
2018-11-05T09:48:37.421Z,14.10
2018-11-05T09:53:40.939Z,10.43
2018-11-05T09:58:44.362Z,13.20
2018-11-05T10:03:53.987Z,13.17
2018-11-05T10:08:57.220Z,13.60
2018-11-05T10:14:00.421Z,13.50
2018-11-05T10:19:03.863Z,12.03
2018-11-05T10:24:07.148Z,11.30
2018-11-05T10:29:10.378Z,11.27
2018-11-05T10:34:13.663Z,12.87
2018-11-05T10:39:16.921Z,13.33
2018-11-05T10:44:20.106Z,11.83
2018-11-05T10:49:23.358Z,12.33
2018-11-05T10:54:26.641Z,12.83
2018-11-05T10:59:29.894Z,12.17
2018-11-05T11:04:33.996Z,12.58
2018-11-05T11:09:37.249Z,10.97
2018-11-05T11:14:40.429Z,11.95
2018-11-05T11:19:43.676Z,10.55
2018-11-05T11:24:46.898Z,12.18
2018-11-05T11:29:50.156Z,12.25
2018-11-05T11:34:53.426Z,11.53
2018-11-05T11:39:56.695Z,14.18
2018-11-05T11:45:00.110Z,12.47
2018-11-05T11:50:03.803Z,13.18
2018-11-05T11:55:09.802Z,11.78
2018-11-05T12:00:16.029Z,14.03
2018-11-05T12:05:19.509Z,12.28
2018-11-05T12:10:23.722Z,13.58
2018-11-05T12:15:27.012Z,10.88
2018-11-05T12:20:30.358Z,11.57
2018-11-05T12:25:33.493Z,12.23
2018-11-05T12:30:36.715Z,12.10
2018-11-05T12:35:39.947Z,12.85
2018-11-05T12:40:43.187Z,12.93
2018-11-05T12:45:46.430Z,12.90
2018-11-05T12:50:49.870Z,12.30
2018-11-05T12:55:53.064Z,11.05
2018-11-05T13:00:56.332Z,13.65
2018-11-05T13:05:59.662Z,11.90
2018-11-05T13:11:02.907Z,11.60
2018-11-05T13:16:06.161Z,13.40
2018-11-05T13:21:09.406Z,12.50
2018-11-05T13:26:13.301Z,12.18
2018-11-05T13:31:16.531Z,12.25
2018-11-05T13:36:19.772Z,10.90
2018-11-05T13:41:23.075Z,9.70
2018-11-05T13:46:26.567Z,10.82
2018-11-05T13:51:29.771Z,11.60
2018-11-05T13:56:33.052Z,12.07
2018-11-05T14:01:36.254Z,9.78
2018-11-05T14:06:39.454Z,9.03
2018-11-05T14:11:42.699Z,11.05
2018-11-05T14:16:45.938Z,10.80
2018-11-05T14:21:49.173Z,10.45
2018-11-05T14:26:52.454Z,9.88
2018-11-05T14:31:55.661Z,9.08
2018-11-05T14:36:59.115Z,8.03
2018-11-05T14:42:02.129Z,8.48
2018-11-05T14:47:05.360Z,10.10
2018-11-05T14:52:08.596Z,9.40
2018-11-05T14:57:12.135Z,8.33
2018-11-05T15:02:21.058Z,8.35
2018-11-05T15:07:24.275Z,8.53
2018-11-05T15:12:27.518Z,8.83
2018-11-05T15:17:30.767Z,8.23
2018-11-05T15:22:34.025Z,8.58
2018-11-05T15:27:38.040Z,10.53
2018-11-05T15:32:41.576Z,9.15
2018-11-05T15:37:44.976Z,10.10
2018-11-05T15:42:48.288Z,8.63
2018-11-05T15:47:51.516Z,8.75
2018-11-05T15:52:55.277Z,9.40
2018-11-05T15:57:58.126Z,9.25
2018-11-05T16:03:01.823Z,9.23
2018-11-05T16:08:05.553Z,11.75
2018-11-05T16:13:08.756Z,9.18
2018-11-05T16:18:12.018Z,9.93
2018-11-05T16:23:15.238Z,10.40
2018-11-05T16:28:18.480Z,13.13
2018-11-05T16:33:21.832Z,11.33
2018-11-05T16:38:25.292Z,12.30
2018-11-05T16:43:28.554Z,16.50
2018-11-05T16:48:31.811Z,14.73
2018-11-05T16:53:41.825Z,12.40
2018-11-05T16:58:45.150Z,13.30
2018-11-05T17:03:48.342Z,11.30
2018-11-05T17:08:51.589Z,12.87
2018-11-05T17:13:54.908Z,11.07
2018-11-05T17:18:58.147Z,13.33
2018-11-05T17:24:08.214Z,12.50
2018-11-05T17:29:11.463Z,14.37
2018-11-05T17:34:14.853Z,10.27
2018-11-05T17:39:18.157Z,10.37
2018-11-05T17:44:21.456Z,10.70
2018-11-05T17:49:24.822Z,12.63
2018-11-05T17:54:28.225Z,11.60
2018-11-05T17:59:31.563Z,15.00
2018-11-05T18:04:35.269Z,12.83
2018-11-05T18:09:38.476Z,11.77
2018-11-05T18:14:42.021Z,11.80
2018-11-05T18:19:45.307Z,11.63
2018-11-05T18:24:48.567Z,11.47
2018-11-05T18:29:51.875Z,11.63
2018-11-05T18:34:55.190Z,13.67
2018-11-05T18:39:58.477Z,20.03
2018-11-05T18:45:01.808Z,16.07
2018-11-05T18:50:08.379Z,19.80
2018-11-05T18:55:13.078Z,18.30
2018-11-05T19:00:22.155Z,18.33
2018-11-05T19:05:26.797Z,19.17
2018-11-05T19:10:30.130Z,20.97
2018-11-05T19:15:33.517Z,17.70
2018-11-05T19:20:36.889Z,19.17
2018-11-05T19:25:40.188Z,17.57
2018-11-05T19:30:43.525Z,28.70
2018-11-05T19:35:46.904Z,40.60
2018-11-05T19:40:50.222Z,26.03
2018-11-05T19:45:53.549Z,16.33
2018-11-05T19:50:56.930Z,16.27
2018-11-05T19:56:00.273Z,17.30
2018-11-05T20:01:03.845Z,14.03
2018-11-05T20:06:07.336Z,14.33
2018-11-05T20:11:10.535Z,17.97
2018-11-05T20:16:14.449Z,15.50
2018-11-05T20:21:19.747Z,16.43
2018-11-05T20:26:23.130Z,14.37
2018-11-05T20:31:30.051Z,15.33
2018-11-05T20:36:33.505Z,14.97
2018-11-05T20:41:37.464Z,11.30
2018-11-05T20:46:41.159Z,14.57
2018-11-05T20:51:45.320Z,15.27
2018-11-05T20:56:49.560Z,16.90
2018-11-05T21:01:52.886Z,14.37
2018-11-05T21:06:56.288Z,15.37
2018-11-05T21:11:59.613Z,16.83
2018-11-05T21:17:03.084Z,16.03
2018-11-05T21:22:12.598Z,17.17
2018-11-05T21:27:17.207Z,13.50
2018-11-05T21:32:21.911Z,13.77
2018-11-05T21:37:25.382Z,12.00
2018-11-05T21:42:29.875Z,13.37
2018-11-05T21:47:33.251Z,15.23
2018-11-05T21:52:42.184Z,13.63
2018-11-05T21:57:47.464Z,12.43
2018-11-05T22:02:56.729Z,15.70
2018-11-05T22:08:00.168Z,14.17
2018-11-05T22:13:06.499Z,13.60
2018-11-05T22:18:14.236Z,13.17
2018-11-05T22:23:19.192Z,15.83
2018-11-05T22:28:23.066Z,13.57
2018-11-05T22:33:26.324Z,14.07
2018-11-05T22:38:29.659Z,13.27
2018-11-05T22:43:33.568Z,11.80
2018-11-05T22:48:47.369Z,12.67
2018-11-05T22:53:51.148Z,13.43
2018-11-05T22:58:54.413Z,10.10
2018-11-05T23:04:00.232Z,12.77
2018-11-05T23:09:05.130Z,13.63
2018-11-05T23:14:10.755Z,13.07
2018-11-05T23:19:19.691Z,11.27
2018-11-05T23:24:23.463Z,11.70
2018-11-05T23:29:26.852Z,12.17
2018-11-05T23:34:30.335Z,13.63
2018-11-05T23:39:34.643Z,13.10
2018-11-05T23:44:40.989Z,16.13
2018-11-05T23:49:46.045Z,15.37
2018-11-05T23:54:51.187Z,15.03
2018-11-05T23:59:54.402Z,13.53
